sensor_id;sensor_type;location;lat;lon;timestamp;temperature;humidity
65568;DHT22;52211;50.154;8.682;2023-02-28T00:01:36;3.90;45.60
65568;DHT22;52211;50.154;8.682;2023-02-28T00:04:06;3.90;45.60
65568;DHT22;52211;50.154;8.682;2023-02-28T00:06:35;3.90;45.60
65568;DHT22;52211;50.154;8.682;2023-02-28T00:09:09;3.80;45.50
65568;DHT22;52211;50.154;8.682;2023-02-28T00:11:41;3.80;45.60
65568;DHT22;52211;50.154;8.682;2023-02-28T00:14:07;3.80;45.60
65568;DHT22;52211;50.154;8.682;2023-02-28T00:16:44;3.80;45.70
65568;DHT22;52211;50.154;8.682;2023-02-28T00:19:11;3.80;45.90
65568;DHT22;52211;50.154;8.682;2023-02-28T00:21:39;3.80;45.80
65568;DHT22;52211;50.154;8.682;2023-02-28T00:24:07;3.70;45.80
65568;DHT22;52211;50.154;8.682;2023-02-28T00:26:38;3.70;45.90
65568;DHT22;52211;50.154;8.682;2023-02-28T00:29:05;3.70;45.90
65568;DHT22;52211;50.154;8.682;2023-02-28T00:31:34;3.60;45.90
65568;DHT22;52211;50.154;8.682;2023-02-28T00:34:03;3.60;46.00
65568;DHT22;52211;50.154;8.682;2023-02-28T00:36:35;3.60;46.00
65568;DHT22;52211;50.154;8.682;2023-02-28T00:39:04;3.50;46.00
65568;DHT22;52211;50.154;8.682;2023-02-28T00:41:31;3.50;46.00
65568;DHT22;52211;50.154;8.682;2023-02-28T00:44:05;3.50;46.10
65568;DHT22;52211;50.154;8.682;2023-02-28T00:46:34;3.50;46.10
65568;DHT22;52211;50.154;8.682;2023-02-28T00:49:06;3.40;46.10
65568;DHT22;52211;50.154;8.682;2023-02-28T00:51:34;3.40;46.10
65568;DHT22;52211;50.154;8.682;2023-02-28T00:54:01;3.40;46.20
65568;DHT22;52211;50.154;8.682;2023-02-28T00:56:31;3.30;46.20
65568;DHT22;52211;50.154;8.682;2023-02-28T00:59:00;3.30;46.20
65568;DHT22;52211;50.154;8.682;2023-02-28T01:01:29;3.30;46.20
65568;DHT22;52211;50.154;8.682;2023-02-28T01:03:57;3.30;46.40
65568;DHT22;52211;50.154;8.682;2023-02-28T01:06:24;3.20;46.30
65568;DHT22;52211;50.154;8.682;2023-02-28T01:08:52;3.20;46.40
65568;DHT22;52211;50.154;8.682;2023-02-28T01:11:22;3.20;46.40
65568;DHT22;52211;50.154;8.682;2023-02-28T01:13:52;3.20;46.40
65568;DHT22;52211;50.154;8.682;2023-02-28T01:16:19;3.10;46.40
65568;DHT22;52211;50.154;8.682;2023-02-28T01:18:46;3.10;46.50
65568;DHT22;52211;50.154;8.682;2023-02-28T01:21:18;3.10;46.50
65568;DHT22;52211;50.154;8.682;2023-02-28T01:23:50;3.00;46.60
65568;DHT22;52211;50.154;8.682;2023-02-28T01:26:21;3.00;46.50
65568;DHT22;52211;50.154;8.682;2023-02-28T01:28:53;3.00;46.60
65568;DHT22;52211;50.154;8.682;2023-02-28T01:31:21;3.00;46.60
65568;DHT22;52211;50.154;8.682;2023-02-28T01:33:54;3.00;46.70
65568;DHT22;52211;50.154;8.682;2023-02-28T01:36:28;2.90;46.70
65568;DHT22;52211;50.154;8.682;2023-02-28T01:38:57;2.90;46.70
65568;DHT22;52211;50.154;8.682;2023-02-28T01:41:29;2.90;46.80
65568;DHT22;52211;50.154;8.682;2023-02-28T01:47:07;2.80;46.90
65568;DHT22;52211;50.154;8.682;2023-02-28T01:49:34;2.80;46.70
65568;DHT22;52211;50.154;8.682;2023-02-28T01:52:03;2.70;46.80
65568;DHT22;52211;50.154;8.682;2023-02-28T01:54:31;2.70;47.10
65568;DHT22;52211;50.154;8.682;2023-02-28T01:57:07;2.70;47.10
65568;DHT22;52211;50.154;8.682;2023-02-28T01:59:59;2.70;47.20
65568;DHT22;52211;50.154;8.682;2023-02-28T02:02:39;2.70;47.10
65568;DHT22;52211;50.154;8.682;2023-02-28T02:05:16;2.70;47.10
65568;DHT22;52211;50.154;8.682;2023-02-28T02:07:46;2.70;47.30
65568;DHT22;52211;50.154;8.682;2023-02-28T02:10:21;2.60;47.30
65568;DHT22;52211;50.154;8.682;2023-02-28T02:16:09;2.60;47.40
65568;DHT22;52211;50.154;8.682;2023-02-28T02:19:37;2.60;48.00
65568;DHT22;52211;50.154;8.682;2023-02-28T02:22:36;2.60;47.60
65568;DHT22;52211;50.154;8.682;2023-02-28T02:42:57;2.50;47.80
65568;DHT22;52211;50.154;8.682;2023-02-28T02:45:32;2.50;48.10
65568;DHT22;52211;50.154;8.682;2023-02-28T02:48:07;2.50;47.70
65568;DHT22;52211;50.154;8.682;2023-02-28T02:50:54;2.50;47.80
65568;DHT22;52211;50.154;8.682;2023-02-28T02:53:33;2.50;48.10
65568;DHT22;52211;50.154;8.682;2023-02-28T02:56:10;2.40;47.90
65568;DHT22;52211;50.154;8.682;2023-02-28T02:58:45;2.40;48.30
65568;DHT22;52211;50.154;8.682;2023-02-28T03:01:21;2.40;47.80
65568;DHT22;52211;50.154;8.682;2023-02-28T03:04:01;2.30;47.90
65568;DHT22;52211;50.154;8.682;2023-02-28T03:06:30;2.30;47.90
65568;DHT22;52211;50.154;8.682;2023-02-28T03:08:57;2.30;47.70
65568;DHT22;52211;50.154;8.682;2023-02-28T03:11:29;2.30;47.90
65568;DHT22;52211;50.154;8.682;2023-02-28T03:14:15;2.30;47.80
65568;DHT22;52211;50.154;8.682;2023-02-28T03:19:53;2.30;47.90
65568;DHT22;52211;50.154;8.682;2023-02-28T03:22:52;2.30;48.40
65568;DHT22;52211;50.154;8.682;2023-02-28T03:25:31;2.30;48.80
65568;DHT22;52211;50.154;8.682;2023-02-28T03:30:56;2.20;48.40
65568;DHT22;52211;50.154;8.682;2023-02-28T03:34:12;2.10;47.90
65568;DHT22;52211;50.154;8.682;2023-02-28T03:36:49;2.10;48.50
65568;DHT22;52211;50.154;8.682;2023-02-28T03:39:31;2.10;48.10
65568;DHT22;52211;50.154;8.682;2023-02-28T03:42:19;2.10;49.00
65568;DHT22;52211;50.154;8.682;2023-02-28T03:44:58;2.10;48.60
65568;DHT22;52211;50.154;8.682;2023-02-28T03:47:55;2.00;48.20
65568;DHT22;52211;50.154;8.682;2023-02-28T03:50:35;2.00;48.20
65568;DHT22;52211;50.154;8.682;2023-02-28T03:55:52;1.90;48.00
65568;DHT22;52211;50.154;8.682;2023-02-28T03:58:41;1.90;48.10
65568;DHT22;52211;50.154;8.682;2023-02-28T04:04:08;2.00;48.40
65568;DHT22;52211;50.154;8.682;2023-02-28T04:06:36;1.90;48.30
65568;DHT22;52211;50.154;8.682;2023-02-28T04:09:07;1.90;48.40
65568;DHT22;52211;50.154;8.682;2023-02-28T04:11:51;1.90;48.30
65568;DHT22;52211;50.154;8.682;2023-02-28T04:14:22;1.90;48.80
65568;DHT22;52211;50.154;8.682;2023-02-28T04:16:49;1.90;48.40
65568;DHT22;52211;50.154;8.682;2023-02-28T04:19:19;1.90;48.50
65568;DHT22;52211;50.154;8.682;2023-02-28T04:21:53;1.90;48.50
65568;DHT22;52211;50.154;8.682;2023-02-28T04:24:22;1.80;48.60
65568;DHT22;52211;50.154;8.682;2023-02-28T04:26:55;1.80;48.60
65568;DHT22;52211;50.154;8.682;2023-02-28T04:29:29;1.80;48.70
65568;DHT22;52211;50.154;8.682;2023-02-28T04:32:02;1.80;48.70
65568;DHT22;52211;50.154;8.682;2023-02-28T04:34:34;1.80;48.60
65568;DHT22;52211;50.154;8.682;2023-02-28T04:37:01;1.80;48.80
65568;DHT22;52211;50.154;8.682;2023-02-28T04:39:40;1.80;48.70
65568;DHT22;52211;50.154;8.682;2023-02-28T04:42:11;1.80;48.70
65568;DHT22;52211;50.154;8.682;2023-02-28T04:44:41;1.80;48.90
65568;DHT22;52211;50.154;8.682;2023-02-28T04:47:10;1.90;49.00
65568;DHT22;52211;50.154;8.682;2023-02-28T04:49:39;1.90;49.10
65568;DHT22;52211;50.154;8.682;2023-02-28T04:52:10;1.90;49.00
65568;DHT22;52211;50.154;8.682;2023-02-28T04:54:39;1.90;49.10
65568;DHT22;52211;50.154;8.682;2023-02-28T04:57:06;1.90;49.20
65568;DHT22;52211;50.154;8.682;2023-02-28T04:59:34;1.90;49.00
65568;DHT22;52211;50.154;8.682;2023-02-28T05:02:00;2.00;49.20
65568;DHT22;52211;50.154;8.682;2023-02-28T05:04:38;2.00;49.20
65568;DHT22;52211;50.154;8.682;2023-02-28T05:07:05;2.10;49.20
65568;DHT22;52211;50.154;8.682;2023-02-28T05:09:32;2.10;49.20
65568;DHT22;52211;50.154;8.682;2023-02-28T05:12:01;2.10;49.30
65568;DHT22;52211;50.154;8.682;2023-02-28T05:14:31;2.10;49.30
65568;DHT22;52211;50.154;8.682;2023-02-28T05:16:57;2.10;49.30
65568;DHT22;52211;50.154;8.682;2023-02-28T05:19:31;2.20;49.40
65568;DHT22;52211;50.154;8.682;2023-02-28T05:22:01;2.20;49.30
65568;DHT22;52211;50.154;8.682;2023-02-28T05:24:31;2.20;49.20
65568;DHT22;52211;50.154;8.682;2023-02-28T05:26:58;2.30;49.30
65568;DHT22;52211;50.154;8.682;2023-02-28T05:29:27;2.30;49.30
65568;DHT22;52211;50.154;8.682;2023-02-28T05:31:54;2.30;49.30
65568;DHT22;52211;50.154;8.682;2023-02-28T05:34:23;2.30;49.30
65568;DHT22;52211;50.154;8.682;2023-02-28T05:36:50;2.30;49.30
65568;DHT22;52211;50.154;8.682;2023-02-28T05:39:17;2.30;49.30
65568;DHT22;52211;50.154;8.682;2023-02-28T05:41:48;2.30;49.30
65568;DHT22;52211;50.154;8.682;2023-02-28T05:44:17;2.30;49.30
65568;DHT22;52211;50.154;8.682;2023-02-28T05:46:46;2.30;49.10
65568;DHT22;52211;50.154;8.682;2023-02-28T05:49:13;2.30;49.20
65568;DHT22;52211;50.154;8.682;2023-02-28T05:51:42;2.30;49.30
65568;DHT22;52211;50.154;8.682;2023-02-28T05:54:14;2.30;49.40
65568;DHT22;52211;50.154;8.682;2023-02-28T05:56:44;2.30;49.30
65568;DHT22;52211;50.154;8.682;2023-02-28T05:59:16;2.30;49.30
65568;DHT22;52211;50.154;8.682;2023-02-28T06:01:45;2.30;49.30
65568;DHT22;52211;50.154;8.682;2023-02-28T06:04:17;2.30;49.30
65568;DHT22;52211;50.154;8.682;2023-02-28T06:06:57;2.30;49.50
65568;DHT22;52211;50.154;8.682;2023-02-28T06:09:24;2.30;49.40
65568;DHT22;52211;50.154;8.682;2023-02-28T06:11:51;2.30;49.40
65568;DHT22;52211;50.154;8.682;2023-02-28T06:14:25;2.30;49.40
65568;DHT22;52211;50.154;8.682;2023-02-28T06:16:54;2.30;49.50
65568;DHT22;52211;50.154;8.682;2023-02-28T06:19:24;2.30;49.50
65568;DHT22;52211;50.154;8.682;2023-02-28T06:21:59;2.30;49.40
65568;DHT22;52211;50.154;8.682;2023-02-28T06:24:30;2.30;49.40
65568;DHT22;52211;50.154;8.682;2023-02-28T06:27:04;2.20;49.40
65568;DHT22;52211;50.154;8.682;2023-02-28T06:29:35;2.30;49.50
65568;DHT22;52211;50.154;8.682;2023-02-28T06:32:02;2.20;49.50
65568;DHT22;52211;50.154;8.682;2023-02-28T06:34:36;2.20;49.40
65568;DHT22;52211;50.154;8.682;2023-02-28T06:37:03;2.20;49.50
65568;DHT22;52211;50.154;8.682;2023-02-28T06:39:34;2.20;49.50
65568;DHT22;52211;50.154;8.682;2023-02-28T06:42:04;2.20;49.60
65568;DHT22;52211;50.154;8.682;2023-02-28T06:44:31;2.20;49.50
65568;DHT22;52211;50.154;8.682;2023-02-28T06:47:03;2.20;49.60
65568;DHT22;52211;50.154;8.682;2023-02-28T06:49:35;2.20;49.60
65568;DHT22;52211;50.154;8.682;2023-02-28T06:52:08;2.20;49.60
65568;DHT22;52211;50.154;8.682;2023-02-28T06:54:37;2.20;49.70
65568;DHT22;52211;50.154;8.682;2023-02-28T06:57:11;2.20;50.20
65568;DHT22;52211;50.154;8.682;2023-02-28T06:59:40;2.20;49.60
65568;DHT22;52211;50.154;8.682;2023-02-28T07:02:11;2.20;49.50
65568;DHT22;52211;50.154;8.682;2023-02-28T07:04:38;2.20;49.50
65568;DHT22;52211;50.154;8.682;2023-02-28T07:07:09;2.20;49.60
65568;DHT22;52211;50.154;8.682;2023-02-28T07:09:38;2.20;49.60
65568;DHT22;52211;50.154;8.682;2023-02-28T07:12:09;2.20;49.70
65568;DHT22;52211;50.154;8.682;2023-02-28T07:14:40;2.20;49.70
65568;DHT22;52211;50.154;8.682;2023-02-28T07:17:11;2.30;49.80
65568;DHT22;52211;50.154;8.682;2023-02-28T07:19:39;2.20;49.70
65568;DHT22;52211;50.154;8.682;2023-02-28T07:22:08;2.30;49.70
65568;DHT22;52211;50.154;8.682;2023-02-28T07:24:35;2.30;49.60
65568;DHT22;52211;50.154;8.682;2023-02-28T07:27:11;2.40;49.60
65568;DHT22;52211;50.154;8.682;2023-02-28T07:29:38;2.30;49.60
65568;DHT22;52211;50.154;8.682;2023-02-28T07:32:07;2.40;49.70
65568;DHT22;52211;50.154;8.682;2023-02-28T07:34:34;2.40;49.60
65568;DHT22;52211;50.154;8.682;2023-02-28T07:37:06;2.40;49.70
65568;DHT22;52211;50.154;8.682;2023-02-28T07:39:32;2.40;49.60
65568;DHT22;52211;50.154;8.682;2023-02-28T07:41:59;2.50;49.60
65568;DHT22;52211;50.154;8.682;2023-02-28T07:44:28;2.50;49.60
65568;DHT22;52211;50.154;8.682;2023-02-28T07:46:55;2.50;49.60
65568;DHT22;52211;50.154;8.682;2023-02-28T07:49:22;2.60;49.70
65568;DHT22;52211;50.154;8.682;2023-02-28T07:51:49;2.60;49.70
65568;DHT22;52211;50.154;8.682;2023-02-28T07:54:18;2.60;49.70
65568;DHT22;52211;50.154;8.682;2023-02-28T07:56:45;2.70;49.80
65568;DHT22;52211;50.154;8.682;2023-02-28T07:59:17;2.70;49.70
65568;DHT22;52211;50.154;8.682;2023-02-28T08:01:46;2.80;49.80
65568;DHT22;52211;50.154;8.682;2023-02-28T08:04:13;2.80;49.80
65568;DHT22;52211;50.154;8.682;2023-02-28T08:06:40;2.90;49.80
65568;DHT22;52211;50.154;8.682;2023-02-28T08:09:07;2.90;49.80
65568;DHT22;52211;50.154;8.682;2023-02-28T08:11:36;3.00;49.90
65568;DHT22;52211;50.154;8.682;2023-02-28T08:14:03;3.00;49.80
65568;DHT22;52211;50.154;8.682;2023-02-28T08:16:30;3.00;49.80
65568;DHT22;52211;50.154;8.682;2023-02-28T08:18:59;3.10;49.80
65568;DHT22;52211;50.154;8.682;2023-02-28T08:21:28;3.20;49.80
65568;DHT22;52211;50.154;8.682;2023-02-28T08:23:56;3.20;49.60
65568;DHT22;52211;50.154;8.682;2023-02-28T08:26:26;3.30;49.60
65568;DHT22;52211;50.154;8.682;2023-02-28T08:28:55;3.30;49.40
65568;DHT22;52211;50.154;8.682;2023-02-28T08:31:26;3.40;49.50
65568;DHT22;52211;50.154;8.682;2023-02-28T08:33:54;3.40;49.30
65568;DHT22;52211;50.154;8.682;2023-02-28T08:36:24;3.50;49.20
65568;DHT22;52211;50.154;8.682;2023-02-28T08:38:56;3.60;49.30
65568;DHT22;52211;50.154;8.682;2023-02-28T08:41:25;3.60;49.20
65568;DHT22;52211;50.154;8.682;2023-02-28T08:43:57;3.70;49.20
65568;DHT22;52211;50.154;8.682;2023-02-28T08:46:24;3.80;49.20
65568;DHT22;52211;50.154;8.682;2023-02-28T08:48:53;3.80;49.10
65568;DHT22;52211;50.154;8.682;2023-02-28T08:51:21;3.90;49.00
65568;DHT22;52211;50.154;8.682;2023-02-28T08:53:54;3.90;48.90
65568;DHT22;52211;50.154;8.682;2023-02-28T08:56:29;4.00;48.80
65568;DHT22;52211;50.154;8.682;2023-02-28T08:58:57;4.00;48.80
65568;DHT22;52211;50.154;8.682;2023-02-28T09:01:27;4.10;48.70
65568;DHT22;52211;50.154;8.682;2023-02-28T09:03:59;4.10;48.60
65568;DHT22;52211;50.154;8.682;2023-02-28T09:06:34;4.20;48.60
65568;DHT22;52211;50.154;8.682;2023-02-28T09:09:01;4.20;48.50
65568;DHT22;52211;50.154;8.682;2023-02-28T09:11:32;4.20;48.50
65568;DHT22;52211;50.154;8.682;2023-02-28T09:14:00;4.30;48.40
65568;DHT22;52211;50.154;8.682;2023-02-28T09:16:31;4.30;48.40
65568;DHT22;52211;50.154;8.682;2023-02-28T09:19:02;4.30;48.40
65568;DHT22;52211;50.154;8.682;2023-02-28T09:21:31;4.40;48.40
65568;DHT22;52211;50.154;8.682;2023-02-28T09:23:58;4.50;48.40
65568;DHT22;52211;50.154;8.682;2023-02-28T09:26:27;4.50;48.20
65568;DHT22;52211;50.154;8.682;2023-02-28T09:29:08;4.60;48.10
65568;DHT22;52211;50.154;8.682;2023-02-28T09:31:35;4.60;48.10
65568;DHT22;52211;50.154;8.682;2023-02-28T09:34:07;4.60;48.10
65568;DHT22;52211;50.154;8.682;2023-02-28T09:36:36;4.60;48.00
65568;DHT22;52211;50.154;8.682;2023-02-28T09:39:11;4.70;48.00
65568;DHT22;52211;50.154;8.682;2023-02-28T09:41:51;4.70;48.00
65568;DHT22;52211;50.154;8.682;2023-02-28T09:47:32;4.90;47.70
65568;DHT22;52211;50.154;8.682;2023-02-28T09:52:50;5.00;48.30
65568;DHT22;52211;50.154;8.682;2023-02-28T09:55:39;5.00;47.80
65568;DHT22;52211;50.154;8.682;2023-02-28T09:58:33;5.10;47.50
65568;DHT22;52211;50.154;8.682;2023-02-28T10:01:17;5.10;47.40
65568;DHT22;52211;50.154;8.682;2023-02-28T10:03:57;5.20;47.40
65568;DHT22;52211;50.154;8.682;2023-02-28T10:06:41;5.30;47.60
65568;DHT22;52211;50.154;8.682;2023-02-28T10:09:32;5.30;47.20
65568;DHT22;52211;50.154;8.682;2023-02-28T10:12:04;5.40;47.10
65568;DHT22;52211;50.154;8.682;2023-02-28T10:14:34;5.50;47.40
65568;DHT22;52211;50.154;8.682;2023-02-28T10:17:12;5.60;47.50
65568;DHT22;52211;50.154;8.682;2023-02-28T10:25:26;6.20;47.90
65568;DHT22;52211;50.154;8.682;2023-02-28T10:28:14;6.50;48.80
65568;DHT22;52211;50.154;8.682;2023-02-28T10:30:52;6.90;48.20
65568;DHT22;52211;50.154;8.682;2023-02-28T10:36:03;7.70;48.70
65568;DHT22;52211;50.154;8.682;2023-02-28T10:38:35;8.10;48.70
65568;DHT22;52211;50.154;8.682;2023-02-28T10:44:21;8.80;48.20
65568;DHT22;52211;50.154;8.682;2023-02-28T10:46:52;9.30;47.20
65568;DHT22;52211;50.154;8.682;2023-02-28T10:49:25;9.70;48.00
65568;DHT22;52211;50.154;8.682;2023-02-28T10:51:57;10.00;46.90
65568;DHT22;52211;50.154;8.682;2023-02-28T10:54:39;10.30;46.70
65568;DHT22;52211;50.154;8.682;2023-02-28T10:57:19;10.50;45.80
65568;DHT22;52211;50.154;8.682;2023-02-28T11:00:12;10.80;45.70
65568;DHT22;52211;50.154;8.682;2023-02-28T11:02:45;11.00;44.90
65568;DHT22;52211;50.154;8.682;2023-02-28T11:05:31;11.20;45.50
65568;DHT22;52211;50.154;8.682;2023-02-28T11:08:14;11.40;44.70
65568;DHT22;52211;50.154;8.682;2023-02-28T11:10:54;11.70;45.10
65568;DHT22;52211;50.154;8.682;2023-02-28T11:13:46;11.90;44.90
65568;DHT22;52211;50.154;8.682;2023-02-28T11:16:21;12.30;44.80
65568;DHT22;52211;50.154;8.682;2023-02-28T11:19:03;12.70;45.30
65568;DHT22;52211;50.154;8.682;2023-02-28T11:21:55;13.00;45.30
65568;DHT22;52211;50.154;8.682;2023-02-28T11:24:45;13.40;44.20
65568;DHT22;52211;50.154;8.682;2023-02-28T11:27:47;13.70;42.80
65568;DHT22;52211;50.154;8.682;2023-02-28T11:30:34;14.00;42.90
65568;DHT22;52211;50.154;8.682;2023-02-28T11:33:44;14.20;43.00
65568;DHT22;52211;50.154;8.682;2023-02-28T11:36:25;14.40;42.80
65568;DHT22;52211;50.154;8.682;2023-02-28T11:38:54;14.50;42.10
65568;DHT22;52211;50.154;8.682;2023-02-28T11:50:19;15.20;42.40
65568;DHT22;52211;50.154;8.682;2023-02-28T11:56:05;15.50;41.40
65568;DHT22;52211;50.154;8.682;2023-02-28T12:02:35;15.70;40.30
65568;DHT22;52211;50.154;8.682;2023-02-28T12:09:02;16.00;40.90
65568;DHT22;52211;50.154;8.682;2023-02-28T12:15:15;16.20;39.70
65568;DHT22;52211;50.154;8.682;2023-02-28T12:18:16;16.10;39.70
65568;DHT22;52211;50.154;8.682;2023-02-28T12:28:51;16.30;39.40
65568;DHT22;52211;50.154;8.682;2023-02-28T12:31:24;16.30;38.70
65568;DHT22;52211;50.154;8.682;2023-02-28T12:34:10;16.50;38.90
65568;DHT22;52211;50.154;8.682;2023-02-28T12:36:43;16.50;37.90
65568;DHT22;52211;50.154;8.682;2023-02-28T12:39:29;16.70;38.80
65568;DHT22;52211;50.154;8.682;2023-02-28T12:42:30;16.70;37.40
65568;DHT22;52211;50.154;8.682;2023-02-28T12:48:31;16.70;37.50
65568;DHT22;52211;50.154;8.682;2023-02-28T12:51:06;16.70;37.70
65568;DHT22;52211;50.154;8.682;2023-02-28T13:09:14;17.30;37.20
65568;DHT22;52211;50.154;8.682;2023-02-28T13:11:52;17.40;36.80
65568;DHT22;52211;50.154;8.682;2023-02-28T13:17:10;17.40;36.50
65568;DHT22;52211;50.154;8.682;2023-02-28T13:19:45;17.40;36.50
65568;DHT22;52211;50.154;8.682;2023-02-28T13:22:39;17.50;36.30
65568;DHT22;52211;50.154;8.682;2023-02-28T13:28:09;17.40;35.10
65568;DHT22;52211;50.154;8.682;2023-02-28T13:33:36;17.50;35.30
65568;DHT22;52211;50.154;8.682;2023-02-28T13:36:35;17.60;35.60
65568;DHT22;52211;50.154;8.682;2023-02-28T13:47:57;18.00;35.10
65568;DHT22;52211;50.154;8.682;2023-02-28T13:50:36;18.10;34.00
65568;DHT22;52211;50.154;8.682;2023-02-28T13:59:14;18.70;33.80
65568;DHT22;52211;50.154;8.682;2023-02-28T14:07:23;19.10;33.70
65568;DHT22;52211;50.154;8.682;2023-02-28T14:10:03;19.10;33.70
65568;DHT22;52211;50.154;8.682;2023-02-28T14:12:57;19.00;33.80
65568;DHT22;52211;50.154;8.682;2023-02-28T14:18:03;18.80;33.60
65568;DHT22;52211;50.154;8.682;2023-02-28T14:20:40;18.80;33.80
65568;DHT22;52211;50.154;8.682;2023-02-28T14:23:32;18.80;34.10
65568;DHT22;52211;50.154;8.682;2023-02-28T14:26:26;18.70;33.30
65568;DHT22;52211;50.154;8.682;2023-02-28T14:31:34;18.40;33.60
65568;DHT22;52211;50.154;8.682;2023-02-28T14:34:23;18.30;33.10
65568;DHT22;52211;50.154;8.682;2023-02-28T14:37:04;18.00;33.80
65568;DHT22;52211;50.154;8.682;2023-02-28T14:39:43;17.70;32.90
65568;DHT22;52211;50.154;8.682;2023-02-28T14:42:37;17.40;32.80
65568;DHT22;52211;50.154;8.682;2023-02-28T14:45:29;17.10;32.70
65568;DHT22;52211;50.154;8.682;2023-02-28T14:47:58;16.80;32.80
65568;DHT22;52211;50.154;8.682;2023-02-28T14:50:33;16.60;33.20
65568;DHT22;52211;50.154;8.682;2023-02-28T14:53:02;16.40;32.80
65568;DHT22;52211;50.154;8.682;2023-02-28T14:55:33;16.20;33.30
65568;DHT22;52211;50.154;8.682;2023-02-28T14:58:04;16.00;33.30
65568;DHT22;52211;50.154;8.682;2023-02-28T15:00:39;15.70;33.20
65568;DHT22;52211;50.154;8.682;2023-02-28T15:03:30;15.40;33.20
65568;DHT22;52211;50.154;8.682;2023-02-28T15:05:59;15.00;33.00
65568;DHT22;52211;50.154;8.682;2023-02-28T15:08:32;14.70;33.30
65568;DHT22;52211;50.154;8.682;2023-02-28T15:11:06;14.40;33.40
65568;DHT22;52211;50.154;8.682;2023-02-28T15:13:44;14.20;33.50
65568;DHT22;52211;50.154;8.682;2023-02-28T15:16:19;14.00;33.70
65568;DHT22;52211;50.154;8.682;2023-02-28T15:18:56;13.70;33.70
65568;DHT22;52211;50.154;8.682;2023-02-28T15:21:29;13.60;33.90
65568;DHT22;52211;50.154;8.682;2023-02-28T15:27:16;13.20;33.50
65568;DHT22;52211;50.154;8.682;2023-02-28T15:30:17;13.00;33.80
65568;DHT22;52211;50.154;8.682;2023-02-28T15:33:06;12.80;33.60
65568;DHT22;52211;50.154;8.682;2023-02-28T15:35:39;12.70;33.80
65568;DHT22;52211;50.154;8.682;2023-02-28T15:38:25;12.50;34.40
65568;DHT22;52211;50.154;8.682;2023-02-28T15:40:58;12.30;34.30
65568;DHT22;52211;50.154;8.682;2023-02-28T15:43:32;12.20;34.40
65568;DHT22;52211;50.154;8.682;2023-02-28T15:46:09;12.10;34.30
65568;DHT22;52211;50.154;8.682;2023-02-28T15:48:52;11.90;34.40
65568;DHT22;52211;50.154;8.682;2023-02-28T15:51:28;11.70;34.20
65568;DHT22;52211;50.154;8.682;2023-02-28T15:54:04;11.50;34.40
65568;DHT22;52211;50.154;8.682;2023-02-28T15:56:39;11.40;34.60
65568;DHT22;52211;50.154;8.682;2023-02-28T15:59:35;11.20;34.50
65568;DHT22;52211;50.154;8.682;2023-02-28T16:04:37;11.00;34.70
65568;DHT22;52211;50.154;8.682;2023-02-28T16:07:25;10.80;34.90
65568;DHT22;52211;50.154;8.682;2023-02-28T16:09:54;10.70;35.00
65568;DHT22;52211;50.154;8.682;2023-02-28T16:12:32;10.70;35.10
65568;DHT22;52211;50.154;8.682;2023-02-28T16:17:47;10.40;35.10
65568;DHT22;52211;50.154;8.682;2023-02-28T16:20:25;10.30;35.20
65568;DHT22;52211;50.154;8.682;2023-02-28T16:22:57;10.20;35.20
65568;DHT22;52211;50.154;8.682;2023-02-28T16:25:39;10.10;35.30
65568;DHT22;52211;50.154;8.682;2023-02-28T16:28:31;10.00;35.30
65568;DHT22;52211;50.154;8.682;2023-02-28T16:31:02;9.90;35.30
65568;DHT22;52211;50.154;8.682;2023-02-28T16:33:35;9.70;35.50
65568;DHT22;52211;50.154;8.682;2023-02-28T16:36:08;9.70;35.70
65568;DHT22;52211;50.154;8.682;2023-02-28T16:38:41;9.60;35.70
65568;DHT22;52211;50.154;8.682;2023-02-28T16:41:14;9.50;35.70
65568;DHT22;52211;50.154;8.682;2023-02-28T16:43:51;9.40;35.80
65568;DHT22;52211;50.154;8.682;2023-02-28T16:46:22;9.30;35.80
65568;DHT22;52211;50.154;8.682;2023-02-28T16:48:54;9.20;35.90
65568;DHT22;52211;50.154;8.682;2023-02-28T16:51:25;9.10;35.80
65568;DHT22;52211;50.154;8.682;2023-02-28T16:53:55;9.10;36.00
65568;DHT22;52211;50.154;8.682;2023-02-28T16:56:24;8.90;35.90
65568;DHT22;52211;50.154;8.682;2023-02-28T16:58:56;8.90;36.00
65568;DHT22;52211;50.154;8.682;2023-02-28T17:01:27;8.90;36.10
65568;DHT22;52211;50.154;8.682;2023-02-28T17:03:55;8.70;36.10
65568;DHT22;52211;50.154;8.682;2023-02-28T17:06:27;8.60;36.10
65568;DHT22;52211;50.154;8.682;2023-02-28T17:08:56;8.60;36.20
65568;DHT22;52211;50.154;8.682;2023-02-28T17:11:28;8.50;36.20
65568;DHT22;52211;50.154;8.682;2023-02-28T17:13:57;8.50;36.30
65568;DHT22;52211;50.154;8.682;2023-02-28T17:16:31;8.40;36.30
65568;DHT22;52211;50.154;8.682;2023-02-28T17:19:02;8.30;36.30
65568;DHT22;52211;50.154;8.682;2023-02-28T17:21:33;8.20;36.40
65568;DHT22;52211;50.154;8.682;2023-02-28T17:24:03;8.10;36.40
65568;DHT22;52211;50.154;8.682;2023-02-28T17:26:31;8.10;36.50
65568;DHT22;52211;50.154;8.682;2023-02-28T17:29:00;8.00;36.60
65568;DHT22;52211;50.154;8.682;2023-02-28T17:31:27;8.00;36.60
65568;DHT22;52211;50.154;8.682;2023-02-28T17:34:00;7.90;36.60
65568;DHT22;52211;50.154;8.682;2023-02-28T17:36:27;7.80;36.60
65568;DHT22;52211;50.154;8.682;2023-02-28T17:39:00;7.70;36.70
65568;DHT22;52211;50.154;8.682;2023-02-28T17:41:28;7.60;36.70
65568;DHT22;52211;50.154;8.682;2023-02-28T17:44:01;7.60;36.80
65568;DHT22;52211;50.154;8.682;2023-02-28T17:46:30;7.50;36.90
65568;DHT22;52211;50.154;8.682;2023-02-28T17:49:00;7.40;36.90
65568;DHT22;52211;50.154;8.682;2023-02-28T17:51:27;7.40;36.90
65568;DHT22;52211;50.154;8.682;2023-02-28T17:53:59;7.30;37.00
65568;DHT22;52211;50.154;8.682;2023-02-28T17:56:26;7.30;37.10
65568;DHT22;52211;50.154;8.682;2023-02-28T17:58:55;7.20;37.10
65568;DHT22;52211;50.154;8.682;2023-02-28T18:01:23;7.10;37.20
65568;DHT22;52211;50.154;8.682;2023-02-28T18:03:53;7.10;37.20
65568;DHT22;52211;50.154;8.682;2023-02-28T18:06:40;7.00;37.30
65568;DHT22;52211;50.154;8.682;2023-02-28T18:09:19;6.90;37.30
65568;DHT22;52211;50.154;8.682;2023-02-28T18:11:53;6.80;37.30
65568;DHT22;52211;50.154;8.682;2023-02-28T18:14:24;6.80;37.50
65568;DHT22;52211;50.154;8.682;2023-02-28T18:16:56;6.70;37.50
65568;DHT22;52211;50.154;8.682;2023-02-28T18:19:28;6.60;37.50
65568;DHT22;52211;50.154;8.682;2023-02-28T18:21:57;6.60;37.50
65568;DHT22;52211;50.154;8.682;2023-02-28T18:24:24;6.50;37.60
65568;DHT22;52211;50.154;8.682;2023-02-28T18:26:56;6.50;37.70
65568;DHT22;52211;50.154;8.682;2023-02-28T18:29:28;6.40;37.70
65568;DHT22;52211;50.154;8.682;2023-02-28T18:31:59;6.40;37.80
65568;DHT22;52211;50.154;8.682;2023-02-28T18:34:29;6.30;37.90
65568;DHT22;52211;50.154;8.682;2023-02-28T18:36:58;6.30;37.90
65568;DHT22;52211;50.154;8.682;2023-02-28T18:39:28;6.20;38.00
65568;DHT22;52211;50.154;8.682;2023-02-28T18:42:00;6.20;38.00
65568;DHT22;52211;50.154;8.682;2023-02-28T18:44:29;6.10;38.10
65568;DHT22;52211;50.154;8.682;2023-02-28T18:47:00;6.20;38.30
65568;DHT22;52211;50.154;8.682;2023-02-28T18:49:27;6.00;38.10
65568;DHT22;52211;50.154;8.682;2023-02-28T18:52:01;6.00;38.20